Detall de PIREP

Printer-friendly versionPDF version

[2015/03/22 06:35:00]
Flight IATA:CT0001
Pilot Number:041
Company ICAO:CAT
Aircraft Type:BE20/A
PAX:5
Departing Airport: LEMH
Destination Airport: LEIB
Alternate Airport:LEPA
Online: VATSIM
Route:MHN CDP MJV IZA IBA
Flight Level:FL090
No Slew and time accel
No pause
Crash detect
Detect pilot in Cockpit between each 30 and 45 minutes
06:35 Zero fuel Weight: 8739 Lbs, Fuel Weight: 2202 Lbs
06:35 VATSIM:LEMH 220600Z 01008KT 5000 -RA FEW009 SCT025 12/12 Q1007
06:35 VATSIM:LEIB 220600Z VRB01KT CAVOK 11/10 Q1008 NOSIG
06:35 VOICE CATALONIAN
06:45 Parking Brakes off
06:51 Take-off
06:51 Take off Weight: 10895 Lbs
06:51 Wind: 011º @ 007 Knots Heading: 007º
06:51 POS N39º 51´ 43´´ E004º 13´ 06´´
06:51 Gear Up: 134 Knots
06:51 Flaps:1 at 134 Knots
06:51 Flaps:0 at 145 Knots
06:59 TOC
06:59 Fuel Weight: 2054 Lb
07:06 Wind:260º@014 Knots Heading: 220º Ground Speed: 218 Knots Altitude 8828 ft
07:17 TOD
07:17 Fuel Weight: 1856 Lb
07:21 Wind:256º@008 Knots Heading: 240º Ground Speed: 222 Knots Altitude 6761 ft
07:34 Flaps:1 at 192 Knots
07:34 Gear Down: 181 Knots
07:35 Flaps:2 at 171 Knots
07:36 Wind:072º@001 Knots Heading: 243º Ground Speed: 127 Knots Altitude 987 ft
07:37 TouchDown:Rate -87 ft/min Speed: 105 Knots
07:37 Flaps:1 at 94 Knots
07:37 Flaps:0 at 89 Knots
07:38 VATSIM:LEIB 220700Z 00000KT CAVOK 12/11 Q1008 NOSIG
07:38 Land
07:38 Wind:071º@001 Knots
07:38 Heading: 245º
07:38 Flight Duration: 00:47
07:38 Landing Weight: 10434 Lbs
07:38 POS N38º 52´ 14´´ E001º 22´ 03´´
07:41 Parking brakes on
07:41 Block to Block Duration: 00:56
07:41 Final Fuel: 1684 Lbls
07:41 Spent Fuel: 518 Lbls
07:41 Flight Length: 159 NM
07:41 TOD Land Length: 68 NM

Exportar CSV

Powered by Drupal - Modified by Danger4k